createdAt,value
2022-10-04T00:02:31.344Z,75.34
2022-10-04T00:05:12.426Z,75.36
2022-10-04T00:07:51.121Z,75.90
2022-10-04T00:10:31.459Z,75.34
2022-10-04T00:13:25.908Z,76.15
2022-10-04T00:15:53.472Z,76.17
2022-10-04T00:18:39.241Z,76.84
2022-10-04T00:21:09.891Z,76.62
2022-10-04T00:23:36.870Z,77.10
2022-10-04T00:26:26.005Z,76.49
2022-10-04T00:28:55.488Z,75.84
2022-10-04T00:31:29.255Z,76.08
2022-10-04T00:34:18.854Z,75.15
2022-10-04T00:36:56.017Z,76.11
2022-10-04T00:39:42.534Z,75.66
2022-10-04T00:42:55.949Z,75.25
2022-10-04T00:46:01.053Z,75.23
2022-10-04T00:48:56.534Z,75.28
2022-10-04T00:51:38.683Z,76.23
2022-10-04T00:54:42.384Z,75.24
2022-10-04T00:57:28.089Z,74.64
2022-10-04T01:00:16.787Z,75.58
2022-10-04T01:02:46.840Z,74.59
2022-10-04T01:05:34.185Z,75.09
2022-10-04T01:08:25.424Z,74.80
2022-10-04T01:11:35.111Z,74.53
2022-10-04T01:14:23.945Z,74.98
2022-10-04T01:16:52.441Z,73.99
2022-10-04T01:19:22.539Z,74.97
2022-10-04T01:22:09.775Z,74.05
2022-10-04T01:24:44.085Z,75.04
2022-10-04T01:27:43.699Z,74.09
2022-10-04T01:30:17.507Z,74.27
2022-10-04T01:32:45.611Z,74.31
2022-10-04T01:35:15.507Z,74.38
2022-10-04T01:37:42.832Z,74.55
2022-10-04T01:40:11.200Z,74.67
2022-10-04T01:42:50.195Z,74.69
2022-10-04T01:45:50.270Z,74.91
2022-10-04T01:48:26.187Z,75.23
2022-10-04T01:51:27.457Z,74.63
2022-10-04T01:54:04.974Z,75.38
2022-10-04T01:56:57.813Z,74.74
2022-10-04T01:59:39.920Z,75.05
2022-10-04T02:02:41.022Z,74.62
2022-10-04T02:05:18.916Z,76.09
2022-10-04T02:07:48.884Z,74.52
2022-10-04T02:10:23.143Z,74.49
2022-10-04T02:12:54.822Z,74.99
2022-10-04T02:15:27.620Z,74.45
2022-10-04T02:17:57.960Z,74.48
2022-10-04T02:20:28.219Z,75.38
2022-10-04T02:23:03.198Z,75.34
2022-10-04T02:25:31.021Z,75.10
2022-10-04T02:27:58.459Z,75.28
2022-10-04T02:30:25.836Z,75.36
2022-10-04T02:32:58.119Z,74.55
2022-10-04T02:35:43.130Z,74.46
2022-10-04T02:38:13.188Z,74.41
2022-10-04T02:40:57.152Z,75.18
2022-10-04T02:43:56.607Z,75.08
2022-10-04T02:46:38.734Z,74.35
2022-10-04T02:49:32.791Z,74.64
2022-10-04T02:52:34.316Z,74.37
2022-10-04T02:55:31.773Z,74.31
2022-10-04T02:58:01.957Z,74.32
2022-10-04T03:00:32.318Z,75.48
2022-10-04T03:03:31.748Z,74.95
2022-10-04T03:06:14.784Z,74.85
2022-10-04T03:09:02.224Z,74.17
2022-10-04T03:11:40.534Z,74.01
2022-10-04T03:14:22.170Z,74.17
2022-10-04T03:16:57.950Z,73.99
2022-10-04T03:19:29.844Z,75.05
2022-10-04T03:22:07.087Z,74.24
2022-10-04T03:24:54.228Z,73.96
2022-10-04T03:27:30.934Z,74.00
2022-10-04T03:29:59.599Z,73.66
2022-10-04T03:32:30.439Z,74.89
2022-10-04T03:35:07.794Z,74.23
2022-10-04T03:37:38.039Z,75.28
2022-10-04T03:40:09.903Z,74.64
2022-10-04T03:42:38.813Z,74.97
2022-10-04T03:45:18.750Z,75.50
2022-10-04T03:47:50.546Z,74.93
2022-10-04T03:50:36.971Z,75.09
2022-10-04T03:53:25.812Z,74.92
2022-10-04T03:55:53.421Z,74.46
2022-10-04T03:58:22.648Z,74.41
2022-10-04T04:01:33.778Z,75.71
2022-10-04T04:04:35.728Z,75.09
2022-10-04T04:07:37.892Z,74.43
2022-10-04T04:10:23.644Z,74.44
2022-10-04T04:13:17.149Z,74.17
2022-10-04T04:15:45.672Z,73.81
2022-10-04T04:18:23.170Z,73.64
2022-10-04T04:20:56.836Z,73.23
2022-10-04T04:23:48.717Z,73.25
2022-10-04T04:26:50.059Z,73.14
2022-10-04T04:29:52.025Z,74.24
2022-10-04T04:32:33.317Z,73.80
2022-10-04T04:35:08.478Z,72.99
2022-10-04T04:37:38.377Z,73.39
2022-10-04T04:40:24.489Z,73.34
2022-10-04T04:42:52.595Z,73.71
2022-10-04T04:45:25.927Z,73.32
2022-10-04T04:47:58.693Z,73.95
2022-10-04T04:50:37.801Z,73.76
2022-10-04T04:53:23.638Z,74.51
2022-10-04T04:56:05.086Z,73.97
2022-10-04T04:58:46.570Z,73.25
2022-10-04T05:01:47.594Z,73.53
2022-10-04T05:04:19.048Z,73.37
2022-10-04T05:07:17.043Z,73.90
2022-10-04T05:09:44.301Z,73.84
2022-10-04T05:12:23.174Z,74.36
2022-10-04T05:14:54.412Z,73.19
2022-10-04T05:17:33.681Z,73.55
2022-10-04T05:20:02.738Z,74.43
2022-10-04T05:22:32.737Z,74.67
2022-10-04T05:25:10.483Z,74.03
2022-10-04T05:27:44.652Z,74.26
2022-10-04T05:31:24.141Z,74.48
2022-10-04T05:33:58.641Z,74.54
2022-10-04T05:37:06.621Z,74.97
2022-10-04T05:40:13.327Z,75.30
2022-10-04T05:42:49.412Z,75.74
2022-10-04T05:45:30.708Z,75.72
2022-10-04T05:48:01.959Z,75.87
2022-10-04T05:50:40.701Z,76.33
2022-10-04T05:53:33.517Z,75.93
2022-10-04T05:56:28.164Z,75.92
2022-10-04T05:59:37.952Z,76.45
2022-10-04T06:02:51.859Z,76.30
2022-10-04T06:06:05.281Z,76.10
2022-10-04T06:09:10.388Z,75.61
2022-10-04T06:12:20.778Z,75.24
2022-10-04T06:15:41.329Z,75.36
2022-10-04T06:19:06.438Z,74.53
2022-10-04T06:22:03.179Z,73.87
2022-10-04T06:24:39.884Z,74.60
2022-10-04T06:27:36.822Z,74.18
2022-10-04T06:30:19.115Z,73.72
2022-10-04T06:33:24.608Z,73.06
2022-10-04T06:36:34.652Z,73.61
2022-10-04T06:40:17.384Z,73.43
2022-10-04T06:43:20.576Z,73.03
2022-10-04T06:46:43.132Z,72.85
2022-10-04T06:50:01.850Z,72.76
2022-10-04T06:53:40.164Z,72.41
2022-10-04T06:57:03.698Z,74.15
2022-10-04T07:00:18.838Z,74.07
2022-10-04T07:03:13.870Z,73.80
2022-10-04T07:06:05.051Z,74.37
2022-10-04T07:08:52.883Z,75.23
2022-10-04T07:11:45.854Z,74.82
2022-10-04T07:14:35.532Z,75.40
2022-10-04T07:17:13.299Z,74.52
2022-10-04T07:19:49.768Z,74.49
2022-10-04T07:22:58.270Z,74.46
2022-10-04T07:25:36.376Z,73.79
2022-10-04T07:28:28.561Z,73.90
2022-10-04T07:31:00.559Z,73.88
2022-10-04T07:33:33.858Z,73.34
2022-10-04T07:36:46.391Z,73.38
2022-10-04T07:39:45.979Z,73.55
2022-10-04T07:42:53.136Z,73.16
2022-10-04T07:45:41.678Z,72.54
2022-10-04T07:48:23.114Z,73.18
2022-10-04T07:51:37.085Z,72.02
2022-10-04T07:55:05.550Z,72.06
2022-10-04T07:58:35.452Z,71.87
2022-10-04T08:01:33.224Z,71.34
2022-10-04T08:04:44.417Z,70.75
2022-10-04T08:07:54.688Z,70.35
2022-10-04T08:10:57.405Z,70.29
2022-10-04T08:14:04.895Z,70.20
2022-10-04T08:17:15.386Z,70.39
2022-10-04T08:20:22.322Z,69.61
2022-10-04T08:23:23.995Z,70.33
2022-10-04T08:26:34.154Z,70.25
2022-10-04T08:29:51.828Z,70.57
2022-10-04T08:32:50.106Z,69.33
2022-10-04T08:35:47.844Z,69.66
2022-10-04T08:38:52.331Z,69.13
2022-10-04T08:42:41.811Z,68.23
2022-10-04T08:45:58.884Z,68.61
2022-10-04T08:49:48.957Z,67.72
2022-10-04T08:53:42.254Z,66.87
2022-10-04T08:57:16.021Z,66.07
2022-10-04T09:00:59.685Z,66.04
2022-10-04T09:04:15.915Z,66.24
2022-10-04T09:07:45.676Z,66.33
2022-10-04T09:10:36.705Z,65.60
2022-10-04T09:13:36.467Z,64.31
2022-10-04T09:17:03.847Z,64.78
2022-10-04T09:20:51.985Z,63.89
2022-10-04T09:25:09.486Z,63.05
2022-10-04T09:28:40.430Z,63.21
2022-10-04T09:32:04.977Z,62.57
2022-10-04T09:35:47.353Z,62.57
2022-10-04T09:39:29.546Z,61.34
2022-10-04T09:42:26.585Z,61.24
2022-10-04T09:45:59.456Z,59.32
2022-10-04T09:48:53.513Z,59.57
2022-10-04T09:52:08.968Z,59.19
2022-10-04T09:55:30.895Z,59.12
2022-10-04T09:58:52.838Z,58.59
2022-10-04T10:02:04.467Z,58.93
2022-10-04T10:05:01.148Z,57.44
2022-10-04T10:08:09.773Z,57.91
2022-10-04T10:11:25.803Z,58.64
2022-10-04T10:14:38.550Z,57.23
2022-10-04T10:17:30.181Z,56.67
2022-10-04T10:20:35.782Z,56.66
2022-10-04T10:23:47.881Z,55.61
2022-10-04T10:26:53.448Z,53.88
2022-10-04T10:29:49.512Z,53.91
2022-10-04T10:32:39.024Z,54.54
2022-10-04T10:36:34.992Z,54.29
2022-10-04T10:40:03.071Z,53.80
2022-10-04T10:44:09.081Z,52.04
2022-10-04T10:47:42.589Z,50.34
2022-10-04T10:51:12.761Z,50.61
2022-10-04T10:54:56.440Z,49.68
2022-10-04T10:57:59.536Z,49.53
2022-10-04T11:01:25.805Z,48.08
2022-10-04T11:05:18.460Z,49.16
2022-10-04T11:08:37.288Z,47.22
2022-10-04T11:12:17.437Z,47.05
2022-10-04T11:15:44.279Z,47.03
2022-10-04T11:18:48.156Z,45.52
2022-10-04T11:22:54.148Z,45.94
2022-10-04T11:26:57.031Z,44.84
2022-10-04T11:30:26.575Z,44.56
2022-10-04T11:33:54.225Z,42.98
2022-10-04T11:36:56.342Z,43.22
2022-10-04T11:40:13.012Z,42.00
2022-10-04T11:43:55.027Z,41.14
2022-10-04T11:47:00.843Z,42.48
2022-10-04T11:50:32.857Z,40.89
2022-10-04T11:53:54.750Z,38.53
2022-10-04T11:57:09.088Z,39.40
2022-10-04T12:00:10.617Z,40.74
2022-10-04T12:04:18.160Z,41.56
2022-10-04T12:07:22.799Z,39.70
2022-10-04T12:10:20.255Z,38.40
2022-10-04T12:12:54.217Z,38.56
2022-10-04T12:16:37.052Z,38.24
2022-10-04T12:20:32.362Z,38.04
2022-10-04T12:23:47.225Z,39.98
2022-10-04T12:27:26.399Z,38.90
2022-10-04T12:30:31.491Z,37.27
2022-10-04T12:33:24.631Z,37.24
2022-10-04T12:37:13.755Z,38.35
2022-10-04T12:39:58.452Z,37.46
2022-10-04T12:43:10.039Z,37.22
2022-10-04T12:46:36.938Z,36.79
2022-10-04T12:49:32.124Z,36.34
2022-10-04T12:52:18.516Z,37.55
2022-10-04T12:56:07.896Z,36.66
2022-10-04T12:58:57.463Z,34.86
2022-10-04T13:02:16.030Z,36.47
2022-10-04T13:05:52.310Z,36.80
2022-10-04T13:09:11.289Z,37.01
2022-10-04T13:13:38.544Z,35.67
2022-10-04T13:17:33.328Z,35.29
2022-10-04T13:20:51.901Z,35.00
2022-10-04T13:24:08.138Z,35.48
2022-10-04T13:27:14.064Z,34.88
2022-10-04T13:30:23.698Z,34.40
2022-10-04T13:33:37.883Z,34.14
2022-10-04T13:37:20.568Z,34.46
2022-10-04T13:40:50.734Z,34.57
2022-10-04T13:44:08.076Z,35.38
2022-10-04T13:47:37.994Z,37.15
2022-10-04T13:51:07.429Z,37.98
2022-10-04T13:54:33.941Z,39.32
2022-10-04T13:58:01.522Z,37.33
2022-10-04T14:01:37.406Z,36.91
2022-10-04T14:04:16.965Z,38.16
2022-10-04T14:07:35.305Z,38.90
2022-10-04T14:11:16.790Z,37.63
2022-10-04T14:14:57.884Z,38.02
2022-10-04T14:18:17.079Z,37.79
2022-10-04T14:21:47.425Z,39.53
2022-10-04T14:24:36.942Z,38.97
2022-10-04T14:28:14.331Z,39.45
2022-10-04T14:31:46.676Z,38.80
2022-10-04T14:35:21.900Z,39.88
2022-10-04T14:38:38.216Z,39.25
2022-10-04T14:42:12.540Z,38.97
2022-10-04T14:45:47.634Z,38.75
2022-10-04T14:49:19.783Z,38.84
2022-10-04T14:52:37.951Z,38.05
2022-10-04T14:55:59.428Z,37.67
2022-10-04T14:59:15.113Z,37.77
2022-10-04T15:02:31.246Z,36.69
2022-10-04T15:05:39.050Z,36.37
2022-10-04T15:08:21.480Z,37.92
2022-10-04T15:11:08.701Z,38.13
2022-10-04T15:13:48.008Z,37.65
2022-10-04T15:16:52.978Z,36.88
2022-10-04T15:19:30.384Z,37.00
2022-10-04T15:22:31.510Z,37.03
2022-10-04T15:24:59.483Z,36.41
2022-10-04T15:27:50.417Z,37.21
2022-10-04T15:31:04.842Z,37.07
2022-10-04T15:34:05.226Z,37.12
2022-10-04T15:37:15.322Z,37.48
2022-10-04T15:40:56.995Z,37.95
2022-10-04T15:44:00.872Z,38.20
2022-10-04T15:47:12.466Z,38.47
2022-10-04T15:50:54.024Z,37.97
2022-10-04T15:54:10.989Z,38.62
2022-10-04T15:56:41.111Z,39.84
2022-10-04T15:59:49.422Z,40.85
2022-10-04T16:03:09.983Z,40.34
2022-10-04T16:06:23.967Z,41.03
2022-10-04T16:09:57.942Z,40.78
2022-10-04T16:13:20.921Z,41.67
2022-10-04T16:16:16.934Z,43.02
2022-10-04T16:19:11.442Z,43.02
2022-10-04T16:21:47.499Z,43.56
2022-10-04T16:24:20.585Z,44.44
2022-10-04T16:26:48.316Z,44.06
2022-10-04T16:29:43.689Z,44.93
2022-10-04T16:32:21.646Z,45.12
2022-10-04T16:35:10.220Z,45.77
2022-10-04T16:38:14.442Z,46.23
2022-10-04T16:41:13.446Z,47.28
2022-10-04T16:43:55.437Z,47.83
2022-10-04T16:46:44.942Z,47.74
2022-10-04T16:49:41.750Z,47.91
2022-10-04T16:52:48.200Z,48.78
2022-10-04T16:55:57.088Z,49.14
2022-10-04T16:58:27.242Z,49.42
2022-10-04T17:02:06.732Z,50.50
2022-10-04T17:05:33.095Z,50.12
2022-10-04T17:09:02.892Z,51.20
2022-10-04T17:12:29.315Z,51.53
2022-10-04T17:15:14.471Z,51.84
2022-10-04T17:18:26.059Z,52.41
2022-10-04T17:21:08.326Z,52.45
2022-10-04T17:24:20.051Z,52.62
2022-10-04T17:27:41.071Z,53.40
2022-10-04T17:30:27.722Z,53.22
2022-10-04T17:33:48.272Z,53.92
2022-10-04T17:36:37.343Z,53.85
2022-10-04T17:39:59.029Z,53.62
2022-10-04T17:43:05.887Z,54.27
2022-10-04T17:46:10.729Z,54.34
2022-10-04T17:49:34.186Z,54.55
2022-10-04T17:52:31.665Z,54.58
2022-10-04T17:55:31.112Z,55.02
2022-10-04T17:58:24.224Z,55.04
2022-10-04T18:01:08.613Z,56.55
2022-10-04T18:03:53.597Z,57.13
2022-10-04T18:07:17.273Z,56.76
2022-10-04T18:10:02.537Z,56.81
2022-10-04T18:13:12.951Z,56.88
2022-10-04T18:16:15.348Z,57.15
2022-10-04T18:18:45.722Z,56.86
2022-10-04T18:21:15.828Z,57.87
2022-10-04T18:24:16.841Z,58.18
2022-10-04T18:27:24.302Z,57.82
2022-10-04T18:30:18.786Z,58.89
2022-10-04T18:32:57.489Z,59.49
2022-10-04T18:35:33.718Z,58.95
2022-10-04T18:38:28.209Z,59.76
2022-10-04T18:41:20.361Z,59.09
2022-10-04T18:44:13.539Z,59.42
2022-10-04T18:46:46.764Z,60.12
2022-10-04T18:49:32.919Z,60.43
2022-10-04T18:53:24.102Z,59.86
2022-10-04T18:56:11.957Z,60.18
2022-10-04T19:00:00.294Z,60.37
2022-10-04T19:03:30.205Z,60.45
2022-10-04T19:06:32.865Z,60.94
2022-10-04T19:09:50.934Z,61.75
2022-10-04T19:13:17.187Z,61.88
2022-10-04T19:16:24.926Z,61.77
2022-10-04T19:19:20.288Z,60.83
2022-10-04T19:22:27.577Z,61.40
2022-10-04T19:25:39.959Z,61.16
2022-10-04T19:28:27.141Z,61.15
2022-10-04T19:31:26.642Z,60.91
2022-10-04T19:34:19.147Z,61.12
2022-10-04T19:37:50.757Z,62.36
2022-10-04T19:40:50.302Z,62.21
2022-10-04T19:44:06.362Z,61.96
2022-10-04T19:47:04.482Z,61.97
2022-10-04T19:50:06.721Z,62.63
2022-10-04T19:52:55.798Z,62.60
2022-10-04T19:56:06.272Z,62.93
2022-10-04T19:59:10.933Z,62.41
2022-10-04T20:01:38.768Z,61.83
2022-10-04T20:04:35.899Z,62.69
2022-10-04T20:07:24.201Z,62.29
2022-10-04T20:10:33.727Z,62.89
2022-10-04T20:13:30.381Z,63.72
2022-10-04T20:15:59.808Z,62.78
2022-10-04T20:18:33.013Z,63.44
2022-10-04T20:21:00.261Z,63.21
2022-10-04T20:23:39.385Z,63.51
2022-10-04T20:26:53.377Z,63.73
2022-10-04T20:29:39.752Z,63.73
2022-10-04T20:32:42.065Z,63.63
2022-10-04T20:35:54.231Z,63.79
2022-10-04T20:38:41.425Z,63.51
2022-10-04T20:41:28.431Z,63.66
2022-10-04T20:44:02.568Z,63.60
2022-10-04T20:46:38.928Z,64.37
2022-10-04T20:49:18.686Z,64.04
2022-10-04T20:51:50.376Z,63.66
2022-10-04T20:54:22.544Z,64.09
2022-10-04T20:56:51.506Z,63.89
2022-10-04T20:59:19.071Z,64.40
2022-10-04T21:02:12.165Z,64.85
2022-10-04T21:04:44.302Z,64.39
2022-10-04T21:07:21.425Z,64.71
2022-10-04T21:09:50.136Z,64.54
2022-10-04T21:12:35.138Z,65.00
2022-10-04T21:15:20.260Z,65.40
2022-10-04T21:18:10.879Z,65.70
2022-10-04T21:20:56.269Z,65.83
2022-10-04T21:23:34.237Z,65.89
2022-10-04T21:26:25.055Z,65.98
2022-10-04T21:28:58.510Z,66.53
2022-10-04T21:31:26.298Z,66.25
2022-10-04T21:33:53.740Z,66.76
2022-10-04T21:36:21.206Z,66.20
2022-10-04T21:38:48.542Z,66.51
2022-10-04T21:41:15.812Z,67.04
2022-10-04T21:43:43.080Z,66.94
2022-10-04T21:46:16.458Z,67.20
2022-10-04T21:48:46.739Z,67.68
2022-10-04T21:51:14.032Z,67.75
2022-10-04T21:53:41.305Z,67.62
2022-10-04T21:56:08.710Z,67.90
2022-10-04T21:58:35.962Z,67.08
2022-10-04T22:01:03.534Z,67.60
2022-10-04T22:03:30.840Z,67.73
2022-10-04T22:05:58.126Z,68.27
2022-10-04T22:08:25.388Z,67.89
2022-10-04T22:10:57.445Z,68.86
2022-10-04T22:13:26.714Z,68.13
2022-10-04T22:15:55.915Z,68.37
2022-10-04T22:18:23.436Z,69.07
2022-10-04T22:20:50.695Z,68.94
2022-10-04T22:23:27.353Z,69.43
2022-10-04T22:25:56.360Z,69.01
2022-10-04T22:28:30.810Z,68.96
2022-10-04T22:30:58.724Z,68.81
2022-10-04T22:33:36.041Z,68.97
2022-10-04T22:36:36.613Z,68.65
2022-10-04T22:39:10.063Z,68.91
2022-10-04T22:41:57.603Z,68.91
2022-10-04T22:44:45.725Z,69.04
2022-10-04T22:47:17.049Z,68.79
2022-10-04T22:49:50.174Z,69.41
2022-10-04T22:52:24.106Z,69.39
2022-10-04T22:54:55.632Z,69.54
2022-10-04T22:57:25.795Z,68.84
2022-10-04T22:59:54.010Z,69.83
2022-10-04T23:02:29.263Z,70.33
2022-10-04T23:05:21.924Z,70.46
2022-10-04T23:07:49.522Z,69.84
2022-10-04T23:10:20.019Z,70.64
2022-10-04T23:12:49.473Z,70.64
2022-10-04T23:15:20.745Z,70.70
2022-10-04T23:17:57.796Z,70.38
2022-10-04T23:20:25.055Z,70.66
2022-10-04T23:22:54.480Z,70.13
2022-10-04T23:25:30.833Z,70.01
2022-10-04T23:28:17.011Z,70.52
2022-10-04T23:30:50.591Z,70.54
2022-10-04T23:33:23.761Z,70.29
2022-10-04T23:35:53.559Z,70.12
2022-10-04T23:38:24.770Z,70.82
2022-10-04T23:40:52.097Z,69.76
2022-10-04T23:43:25.157Z,70.79
2022-10-04T23:45:58.604Z,70.22
2022-10-04T23:48:31.933Z,70.70
2022-10-04T23:51:00.867Z,70.14
2022-10-04T23:53:33.857Z,70.50
2022-10-04T23:56:18.381Z,70.83
2022-10-04T23:58:46.959Z,71.19
